createdAt,value
2022-08-14T00:02:01.593Z,94706.63
2022-08-14T00:04:34.304Z,94699.06
2022-08-14T00:07:06.046Z,94681.22
2022-08-14T00:09:56.182Z,94692.53
2022-08-14T00:12:24.756Z,94696.91
2022-08-14T00:15:02.782Z,94704.50
2022-08-14T00:17:31.482Z,94695.72
2022-08-14T00:20:08.659Z,94686.50
2022-08-14T00:22:44.482Z,94691.81
2022-08-14T00:25:41.819Z,94689.16
2022-08-14T00:28:15.443Z,94683.81
2022-08-14T00:30:47.005Z,94683.19
2022-08-14T00:33:16.886Z,94680.06
2022-08-14T00:36:37.432Z,94673.63
2022-08-14T00:38:36.068Z,94678.97
2022-08-14T00:41:06.969Z,94685.25
2022-08-14T00:43:43.146Z,94673.81
2022-08-14T00:46:23.289Z,94671.28
2022-08-14T00:49:00.837Z,94670.06
2022-08-14T00:51:34.693Z,94665.78
2022-08-14T00:54:21.215Z,94656.69
2022-08-14T00:56:55.529Z,94657.84
2022-08-14T00:59:25.388Z,94658.91
2022-08-14T01:01:58.604Z,94653.72
2022-08-14T01:04:52.287Z,94646.97
2022-08-14T01:07:21.150Z,94640.88
2022-08-14T01:09:52.801Z,94637.75
2022-08-14T01:12:26.902Z,94637.75
2022-08-14T01:14:59.510Z,94632.41
2022-08-14T01:17:50.805Z,94624.09
2022-08-14T01:20:39.981Z,94619.88
2022-08-14T01:23:16.820Z,94614.09
2022-08-14T01:25:51.127Z,94618.31
2022-08-14T01:28:46.408Z,94614.69
2022-08-14T01:31:12.390Z,94611.41
2022-08-14T01:34:00.470Z,94611.84
2022-08-14T01:36:36.722Z,94620.16
2022-08-14T01:39:09.557Z,94611.72
2022-08-14T01:41:42.437Z,94611.91
2022-08-14T01:44:32.458Z,94612.69
2022-08-14T01:47:16.441Z,94605.78
2022-08-14T01:49:59.873Z,94601.53
2022-08-14T01:52:34.095Z,94607.47
2022-08-14T01:55:23.302Z,94599.19
2022-08-14T01:58:18.553Z,94588.84
2022-08-14T02:00:39.982Z,94582.59
2022-08-14T02:03:08.580Z,94576.31
2022-08-14T02:05:39.011Z,94568.16
2022-08-14T02:08:09.351Z,94556.91
2022-08-14T02:10:47.339Z,94547.81
2022-08-14T02:13:19.086Z,94553.44
2022-08-14T02:15:48.803Z,94546.56
2022-08-14T02:18:18.633Z,94545.16
2022-08-14T02:20:47.661Z,94536.22
2022-08-14T02:23:16.563Z,94536.84
2022-08-14T02:26:24.380Z,94540.31
2022-08-14T02:28:58.028Z,94534.97
2022-08-14T02:31:36.381Z,94527.75
2022-08-14T02:34:14.597Z,94532.94
2022-08-14T02:37:04.089Z,94538.88
2022-08-14T02:39:37.251Z,94535.72
2022-08-14T02:42:13.201Z,94540.72
2022-08-14T02:44:43.301Z,94543.38
2022-08-14T02:47:20.873Z,94545.91
2022-08-14T02:49:50.697Z,94549.97
2022-08-14T02:52:56.510Z,94552.78
2022-08-14T02:55:11.136Z,94553.09
2022-08-14T02:57:41.084Z,94560.59
2022-08-14T03:00:13.109Z,94572.97
2022-08-14T03:02:56.797Z,94577.50
2022-08-14T03:05:32.995Z,94579.38
2022-08-14T03:08:09.545Z,94579.69
2022-08-14T03:10:41.855Z,94576.28
2022-08-14T03:13:19.820Z,94574.09
2022-08-14T03:15:51.012Z,94563.44
2022-08-14T03:18:30.569Z,94567.78
2022-08-14T03:20:59.500Z,94565.44
2022-08-14T03:23:27.945Z,94566.09
2022-08-14T03:25:56.306Z,94565.00
2022-08-14T03:28:29.558Z,94560.47
2022-08-14T03:31:02.193Z,94565.13
2022-08-14T03:33:38.277Z,94566.78
2022-08-14T03:37:38.206Z,94566.19
2022-08-14T03:39:12.832Z,94564.16
2022-08-14T03:41:44.307Z,94557.25
2022-08-14T03:45:26.903Z,94558.03
2022-08-14T03:47:03.036Z,94549.91
2022-08-14T03:49:31.484Z,94549.75
2022-08-14T03:52:07.613Z,94540.22
2022-08-14T03:54:46.425Z,94540.22
2022-08-14T03:57:22.777Z,94552.25
2022-08-14T03:59:53.107Z,94547.72
2022-08-14T04:02:32.562Z,94542.66
2022-08-14T04:05:11.711Z,94529.69
2022-08-14T04:07:49.808Z,94530.38
2022-08-14T04:10:32.136Z,94523.25
2022-08-14T04:13:03.765Z,94522.78
2022-08-14T04:15:56.293Z,94519.81
2022-08-14T04:18:22.457Z,94516.22
2022-08-14T04:20:54.630Z,94513.09
2022-08-14T04:23:29.494Z,94504.16
2022-08-14T04:26:02.451Z,94491.94
2022-08-14T04:29:07.484Z,94486.63
2022-08-14T04:31:25.063Z,94477.09
2022-08-14T04:34:17.337Z,94467.44
2022-08-14T04:37:08.215Z,94462.13
2022-08-14T04:39:57.479Z,94469.94
2022-08-14T04:42:46.900Z,94470.41
2022-08-14T04:45:19.937Z,94481.63
2022-08-14T04:48:10.098Z,94485.19
2022-08-14T04:50:44.636Z,94487.31
2022-08-14T04:53:15.627Z,94497.13
2022-08-14T04:55:50.015Z,94507.22
2022-08-14T04:58:21.815Z,94522.72
2022-08-14T05:00:55.870Z,94505.66
2022-08-14T05:03:32.052Z,94504.78
2022-08-14T05:06:02.207Z,94495.47
2022-08-14T05:08:57.480Z,94513.94
2022-08-14T05:11:20.081Z,94518.22
2022-08-14T05:16:37.947Z,94508.25
2022-08-14T05:19:19.189Z,94504.41
2022-08-14T05:22:16.414Z,94493.88
2022-08-14T05:24:48.640Z,94490.03
2022-08-14T05:27:22.214Z,94501.91
2022-08-14T05:29:50.567Z,94500.75
2022-08-14T05:32:18.556Z,94510.09
2022-08-14T05:34:49.518Z,94520.47
2022-08-14T05:37:17.491Z,94522.13
2022-08-14T05:39:45.482Z,94535.03
2022-08-14T05:42:22.228Z,94535.09
2022-08-14T05:44:55.875Z,94543.19
2022-08-14T05:47:24.196Z,94552.09
2022-08-14T05:49:59.918Z,94556.25
2022-08-14T05:52:38.510Z,94571.63
2022-08-14T05:55:10.222Z,94577.13
2022-08-14T05:57:48.983Z,94583.19
2022-08-14T06:00:24.434Z,94588.34
2022-08-14T06:02:57.247Z,94597.81
2022-08-14T06:05:28.606Z,94593.09
2022-08-14T06:07:57.625Z,94601.44
2022-08-14T06:10:28.134Z,94598.22
2022-08-14T06:13:05.867Z,94583.72
2022-08-14T06:15:33.911Z,94554.97
2022-08-14T06:18:02.015Z,94567.41
2022-08-14T06:20:34.356Z,94570.69
2022-08-14T06:23:02.767Z,94584.56
2022-08-14T06:25:32.223Z,94598.25
2022-08-14T06:28:02.146Z,94593.28
2022-08-14T06:30:46.353Z,94598.78
2022-08-14T06:33:16.585Z,94589.13
2022-08-14T06:35:49.933Z,94599.16
2022-08-14T06:38:23.301Z,94609.03
2022-08-14T06:40:53.287Z,94620.03
2022-08-14T06:43:27.075Z,94634.41
2022-08-14T06:45:57.164Z,94642.00
2022-08-14T06:48:26.199Z,94652.28
2022-08-14T06:50:57.831Z,94659.22
2022-08-14T06:53:28.094Z,94688.47
2022-08-14T06:56:02.040Z,94718.75
2022-08-14T06:58:32.170Z,94770.72
2022-08-14T07:01:26.843Z,94768.84
2022-08-14T07:04:22.902Z,94785.41
2022-08-14T07:06:54.871Z,94775.19
2022-08-14T07:09:27.984Z,94805.75
2022-08-14T07:11:56.472Z,94818.63
2022-08-14T07:14:25.902Z,94835.03
2022-08-14T07:16:54.471Z,94828.16
2022-08-14T07:19:23.225Z,94825.84
2022-08-14T07:21:52.548Z,94820.25
2022-08-14T07:24:21.723Z,94810.34
2022-08-14T07:26:54.070Z,94807.34
2022-08-14T07:29:26.274Z,94816.16
2022-08-14T07:31:56.819Z,94829.34
2022-08-14T07:34:36.335Z,94834.06
2022-08-14T07:37:11.120Z,94847.44
2022-08-14T07:39:39.200Z,94832.50
2022-08-14T07:42:11.467Z,94822.50
2022-08-14T07:44:45.937Z,94819.72
2022-08-14T07:47:17.059Z,94804.38
2022-08-14T07:49:59.837Z,94796.22
2022-08-14T07:52:40.565Z,94783.72
2022-08-14T07:55:10.770Z,94779.81
2022-08-14T07:57:40.715Z,94779.91
2022-08-14T08:00:12.431Z,94787.84
2022-08-14T08:03:00.363Z,94782.34
2022-08-14T08:05:28.985Z,94782.34
2022-08-14T08:07:58.622Z,94784.09
2022-08-14T08:11:01.853Z,94790.41
2022-08-14T08:13:24.050Z,94797.78
2022-08-14T08:15:54.878Z,94810.03
2022-08-14T08:18:27.777Z,94822.09
2022-08-14T08:20:59.652Z,94834.25
2022-08-14T08:23:43.545Z,94829.59
2022-08-14T08:26:19.739Z,94855.81
2022-08-14T08:28:57.199Z,94857.03
2022-08-14T08:31:32.841Z,94866.28
2022-08-14T08:34:06.320Z,94865.19
2022-08-14T08:36:41.928Z,94858.97
2022-08-14T08:39:14.968Z,94859.81
2022-08-14T08:41:49.250Z,94862.53
2022-08-14T08:44:31.805Z,94854.25
2022-08-14T08:47:05.560Z,94854.53
2022-08-14T08:49:48.118Z,94861.53
2022-08-14T08:52:24.469Z,94859.53
2022-08-14T08:54:58.755Z,94868.84
2022-08-14T08:57:26.850Z,94861.13
2022-08-14T08:59:58.730Z,94855.31
2022-08-14T09:02:27.880Z,94853.09
2022-08-14T09:05:03.732Z,94861.41
2022-08-14T09:07:31.716Z,94863.69
2022-08-14T09:10:01.122Z,94858.97
2022-08-14T09:12:32.461Z,94852.69
2022-08-14T09:15:02.509Z,94872.22
2022-08-14T09:17:30.887Z,94871.72
2022-08-14T09:20:02.267Z,94876.16
2022-08-14T09:22:34.789Z,94870.56
2022-08-14T09:25:19.735Z,94862.41
2022-08-14T09:27:49.152Z,94858.25
2022-08-14T09:30:31.748Z,94854.25
2022-08-14T09:33:23.236Z,94848.38
2022-08-14T09:36:08.941Z,94851.66
2022-08-14T09:38:47.278Z,94848.44
2022-08-14T09:42:21.891Z,94840.47
2022-08-14T09:44:45.824Z,94838.78
2022-08-14T09:47:14.582Z,94836.72
2022-08-14T09:49:43.462Z,94845.78
2022-08-14T09:52:32.679Z,94842.63
2022-08-14T09:55:03.383Z,94835.81
2022-08-14T09:57:33.436Z,94849.66
2022-08-14T10:00:29.288Z,94847.72
2022-08-14T10:03:03.621Z,94853.28
2022-08-14T10:05:37.921Z,94857.06
2022-08-14T10:08:25.607Z,94856.28
2022-08-14T10:11:02.848Z,94860.63
2022-08-14T10:13:42.860Z,94861.69
2022-08-14T10:16:27.455Z,94851.06
2022-08-14T10:19:09.485Z,94854.56
2022-08-14T10:21:58.854Z,94846.69
2022-08-14T10:24:36.504Z,94838.22
2022-08-14T10:27:05.536Z,94835.66
2022-08-14T10:29:37.567Z,94838.97
2022-08-14T10:32:17.264Z,94833.47
2022-08-14T10:34:52.509Z,94830.75
2022-08-14T10:37:23.163Z,94826.50
2022-08-14T10:40:05.337Z,94816.66
2022-08-14T10:42:39.666Z,94806.97
2022-08-14T10:45:21.886Z,94802.88
2022-08-14T10:48:09.611Z,94785.53
2022-08-14T10:50:46.476Z,94785.09
2022-08-14T10:53:15.523Z,94779.34
2022-08-14T10:55:45.487Z,94775.41
2022-08-14T10:58:14.951Z,94770.38
2022-08-14T11:00:57.154Z,94773.31
2022-08-14T11:03:35.771Z,94773.50
2022-08-14T11:06:19.948Z,94758.88
2022-08-14T11:08:50.851Z,94742.28
2022-08-14T11:11:19.508Z,94735.03
2022-08-14T11:13:47.821Z,94730.06
2022-08-14T11:16:18.282Z,94723.31
2022-08-14T11:18:50.898Z,94715.63
2022-08-14T11:21:23.363Z,94701.25
2022-08-14T11:23:53.771Z,94695.31
2022-08-14T11:26:28.097Z,94683.28
2022-08-14T11:29:01.406Z,94676.91
2022-08-14T11:31:38.809Z,94666.00
2022-08-14T11:34:30.023Z,94675.06
2022-08-14T11:37:04.297Z,94676.66
2022-08-14T11:39:45.601Z,94657.63
2022-08-14T11:42:58.244Z,94638.06
2022-08-14T11:45:16.929Z,94645.84
2022-08-14T11:48:12.605Z,94640.72
2022-08-14T11:50:37.731Z,94630.22
2022-08-14T11:53:08.824Z,94637.28
2022-08-14T11:55:39.335Z,94634.00
2022-08-14T11:58:10.624Z,94649.16
2022-08-14T12:00:48.631Z,94653.28
2022-08-14T12:03:27.053Z,94652.84
2022-08-14T12:06:21.591Z,94643.78
2022-08-14T12:08:59.925Z,94650.19
2022-08-14T12:11:43.462Z,94661.38
2022-08-14T12:14:30.926Z,94652.13
2022-08-14T12:17:05.224Z,94644.47
2022-08-14T12:19:51.518Z,94633.47
2022-08-14T12:22:34.059Z,94635.31
2022-08-14T12:25:04.185Z,94638.38
2022-08-14T12:27:51.733Z,94627.94
2022-08-14T12:30:39.387Z,94629.53
2022-08-14T12:33:23.954Z,94617.66
2022-08-14T12:35:57.913Z,94617.31
2022-08-14T12:38:38.641Z,94614.13
2022-08-14T12:41:16.491Z,94599.59
2022-08-14T12:43:53.763Z,94596.41
2022-08-14T12:46:27.179Z,94587.41
2022-08-14T12:48:57.428Z,94585.09
2022-08-14T12:51:30.836Z,94577.59
2022-08-14T12:54:00.946Z,94574.56
2022-08-14T12:56:33.780Z,94571.75
2022-08-14T12:59:03.399Z,94558.63
2022-08-14T13:01:59.363Z,94557.19
2022-08-14T13:04:22.994Z,94546.31
2022-08-14T13:06:52.889Z,94543.53
2022-08-14T13:09:21.248Z,94534.28
2022-08-14T13:11:58.940Z,94518.09
2022-08-14T13:14:47.910Z,94514.41
2022-08-14T13:17:17.384Z,94525.56
2022-08-14T13:19:47.287Z,94530.28
2022-08-14T13:22:28.911Z,94526.03
2022-08-14T13:25:01.286Z,94529.81
2022-08-14T13:27:39.234Z,94529.97
2022-08-14T13:30:13.751Z,94533.13
2022-08-14T13:32:49.464Z,94532.13
2022-08-14T13:35:19.004Z,94522.72
2022-08-14T13:37:49.911Z,94518.81
2022-08-14T13:40:26.313Z,94520.09
2022-08-14T13:42:56.883Z,94508.34
2022-08-14T13:45:27.576Z,94519.59
2022-08-14T13:48:28.437Z,94523.66
2022-08-14T13:51:04.878Z,94523.66
2022-08-14T13:53:49.503Z,94534.91
2022-08-14T13:56:36.998Z,94540.13
2022-08-14T13:59:06.432Z,94537.72
2022-08-14T14:01:42.780Z,94531.13
2022-08-14T14:04:19.467Z,94521.22
2022-08-14T14:06:49.808Z,94521.31
2022-08-14T14:09:32.238Z,94529.94
2022-08-14T14:12:01.452Z,94531.66
2022-08-14T14:14:51.175Z,94536.63
2022-08-14T14:17:24.506Z,94531.28
2022-08-14T14:19:53.459Z,94530.69
2022-08-14T14:22:35.815Z,94537.25
2022-08-14T14:25:14.524Z,94535.63
2022-08-14T14:27:49.446Z,94533.59
2022-08-14T14:30:52.201Z,94517.03
2022-08-14T14:33:41.879Z,94522.28
2022-08-14T14:36:05.052Z,94537.53
2022-08-14T14:38:34.786Z,94534.13
2022-08-14T14:41:05.737Z,94538.34
2022-08-14T14:43:39.094Z,94546.59
2022-08-14T14:46:09.113Z,94553.94
2022-08-14T14:48:46.744Z,94555.91
2022-08-14T14:51:22.863Z,94555.56
2022-08-14T14:53:52.465Z,94546.44
2022-08-14T14:56:51.645Z,94542.50
2022-08-14T14:59:13.167Z,94555.69
2022-08-14T15:01:41.669Z,94556.97
2022-08-14T15:04:20.857Z,94554.03
2022-08-14T15:06:50.052Z,94550.72
2022-08-14T15:09:20.340Z,94549.28
2022-08-14T15:11:49.934Z,94563.75
2022-08-14T15:14:57.340Z,94569.53
2022-08-14T15:17:06.559Z,94557.72
2022-08-14T15:19:34.870Z,94553.03
2022-08-14T15:22:03.592Z,94544.84
2022-08-14T15:24:31.681Z,94546.03
2022-08-14T15:27:03.206Z,94542.69
2022-08-14T15:29:31.153Z,94553.59
2022-08-14T15:31:59.684Z,94551.72
2022-08-14T15:34:44.342Z,94551.09
2022-08-14T15:37:16.692Z,94555.00
2022-08-14T15:39:45.453Z,94546.00
2022-08-14T15:42:15.851Z,94544.56
2022-08-14T15:44:57.491Z,94530.72
2022-08-14T15:47:29.566Z,94538.28
2022-08-14T15:49:59.316Z,94529.47
2022-08-14T15:52:32.974Z,94527.22
2022-08-14T15:55:06.770Z,94533.81
2022-08-14T15:57:37.385Z,94525.41
2022-08-14T16:00:43.283Z,94521.72
2022-08-14T16:03:15.614Z,94526.22
2022-08-14T16:05:44.497Z,94529.56
2022-08-14T16:08:26.543Z,94535.34
2022-08-14T16:10:58.233Z,94537.53
2022-08-14T16:13:41.209Z,94546.00
2022-08-14T16:16:49.015Z,94542.59
2022-08-14T16:19:07.545Z,94542.50
2022-08-14T16:21:40.493Z,94543.50
2022-08-14T16:24:27.696Z,94546.38
2022-08-14T16:27:00.420Z,94558.25
2022-08-14T16:29:31.554Z,94552.72
2022-08-14T16:32:01.614Z,94555.59
2022-08-14T16:34:45.901Z,94554.19
2022-08-14T16:37:18.446Z,94551.97
2022-08-14T16:39:48.643Z,94550.41
2022-08-14T16:43:03.362Z,94555.47
2022-08-14T16:45:10.103Z,94545.78
2022-08-14T16:47:39.769Z,94547.06
2022-08-14T16:50:11.321Z,94555.56
2022-08-14T16:52:44.510Z,94551.38
2022-08-14T16:55:14.342Z,94568.78
2022-08-14T16:57:50.215Z,94576.59
2022-08-14T17:00:44.128Z,94598.56
2022-08-14T17:03:14.637Z,94602.66
2022-08-14T17:05:47.040Z,94602.25
2022-08-14T17:08:31.781Z,94604.69
2022-08-14T17:11:11.124Z,94598.50
2022-08-14T17:13:57.969Z,94578.03
2022-08-14T17:16:37.525Z,94573.06
2022-08-14T17:19:11.621Z,94578.69
2022-08-14T17:21:46.872Z,94585.75
2022-08-14T17:24:56.987Z,94577.75
2022-08-14T17:27:08.581Z,94569.72
2022-08-14T17:29:44.683Z,94568.69
2022-08-14T17:32:29.398Z,94558.09
2022-08-14T17:35:16.817Z,94561.13
2022-08-14T17:37:56.067Z,94551.75
2022-08-14T17:40:30.773Z,94570.06
2022-08-14T17:43:01.840Z,94572.91
2022-08-14T17:45:46.988Z,94565.44
2022-08-14T17:49:09.967Z,94573.88
2022-08-14T17:51:23.997Z,94571.88
2022-08-14T17:54:02.976Z,94570.00
2022-08-14T17:56:33.556Z,94567.22
2022-08-14T17:59:05.319Z,94564.88
2022-08-14T18:01:38.900Z,94569.06
2022-08-14T18:04:24.729Z,94564.72
2022-08-14T18:07:16.831Z,94565.25
2022-08-14T18:09:58.592Z,94564.88
2022-08-14T18:12:36.524Z,94547.38
2022-08-14T18:15:16.100Z,94552.38
2022-08-14T18:17:52.822Z,94544.25
2022-08-14T18:21:40.069Z,94548.13
2022-08-14T18:23:14.200Z,94543.19
2022-08-14T18:25:49.428Z,94540.34
2022-08-14T18:28:51.096Z,94536.13
2022-08-14T18:31:42.185Z,94538.34
2022-08-14T18:34:30.924Z,94558.78
2022-08-14T18:37:17.852Z,94572.38
2022-08-14T18:40:03.249Z,94568.19
2022-08-14T18:42:44.666Z,94575.28
2022-08-14T18:45:18.647Z,94579.28
2022-08-14T18:48:14.061Z,94579.28
2022-08-14T18:50:52.249Z,94584.09
2022-08-14T18:53:25.406Z,94590.09
2022-08-14T18:56:09.930Z,94603.34
2022-08-14T18:58:48.937Z,94600.22
2022-08-14T19:01:27.147Z,94593.34
2022-08-14T19:03:57.924Z,94598.06
2022-08-14T19:06:56.013Z,94584.31
2022-08-14T19:09:58.835Z,94592.75
2022-08-14T19:13:05.001Z,94602.16
2022-08-14T19:15:43.393Z,94600.03
2022-08-14T19:18:25.822Z,94601.06
2022-08-14T19:20:56.542Z,94618.47
2022-08-14T19:23:43.989Z,94611.97
2022-08-14T19:26:33.777Z,94617.28
2022-08-14T19:29:36.007Z,94613.53
2022-08-14T19:32:07.244Z,94611.97
2022-08-14T19:34:48.153Z,94615.13
2022-08-14T19:37:45.953Z,94624.16
2022-08-14T19:40:19.327Z,94625.72
2022-08-14T19:42:50.426Z,94618.84
2022-08-14T19:45:18.706Z,94621.50
2022-08-14T19:47:49.902Z,94628.84
2022-08-14T19:50:31.083Z,94623.56
2022-08-14T19:53:11.105Z,94622.47
2022-08-14T19:55:45.517Z,94620.53
2022-08-14T19:58:15.315Z,94616.72
2022-08-14T20:00:52.386Z,94613.38
2022-08-14T20:03:24.119Z,94620.84
2022-08-14T20:06:01.772Z,94623.19
2022-08-14T20:11:07.164Z,94621.44
2022-08-14T20:12:00.480Z,94625.38
2022-08-14T20:14:20.547Z,94626.34
2022-08-14T20:16:54.279Z,94631.06
2022-08-14T20:19:28.733Z,94639.16
2022-08-14T20:22:04.650Z,94633.16
2022-08-14T20:24:49.947Z,94641.31
2022-08-14T20:27:38.780Z,94637.09
2022-08-14T20:30:35.329Z,94631.53
2022-08-14T20:33:07.903Z,94629.25
2022-08-14T20:35:43.284Z,94632.41
2022-08-14T20:38:31.363Z,94631.31
2022-08-14T20:41:06.552Z,94628.38
2022-08-14T20:43:55.256Z,94630.03
2022-08-14T20:46:29.921Z,94646.16
2022-08-14T20:49:00.683Z,94652.44
2022-08-14T20:51:47.514Z,94646.03
2022-08-14T20:54:34.642Z,94639.75
2022-08-14T20:57:09.232Z,94636.31
2022-08-14T20:59:43.649Z,94644.56
2022-08-14T21:02:29.686Z,94650.84
2022-08-14T21:05:00.611Z,94653.47
2022-08-14T21:07:50.433Z,94657.19
2022-08-14T21:10:36.057Z,94660.47
2022-08-14T21:13:25.604Z,94665.78
2022-08-14T21:15:57.823Z,94665.78
2022-08-14T21:18:30.455Z,94655.78
2022-08-14T21:21:06.718Z,94663.72
2022-08-14T21:23:36.199Z,94665.78
2022-08-14T21:26:51.305Z,94661.66
2022-08-14T21:29:14.627Z,94670.09
2022-08-14T21:31:43.142Z,94662.66
2022-08-14T21:34:31.001Z,94661.66
2022-08-14T21:37:09.866Z,94668.53
2022-08-14T21:39:38.426Z,94665.97
2022-08-14T21:42:06.896Z,94658.69
2022-08-14T21:44:43.873Z,94659.66
2022-08-14T21:47:16.120Z,94658.09
2022-08-14T21:49:48.082Z,94658.25
2022-08-14T21:52:49.267Z,94654.03
2022-08-14T21:55:13.679Z,94649.63
2022-08-14T21:57:55.751Z,94654.72
2022-08-14T22:00:31.579Z,94652.59
2022-08-14T22:03:06.467Z,94650.44
2022-08-14T22:05:40.035Z,94653.59
2022-08-14T22:08:12.338Z,94649.84
2022-08-14T22:10:44.720Z,94645.72
2022-08-14T22:13:15.874Z,94650.44
2022-08-14T22:15:49.484Z,94655.16
2022-08-14T22:18:20.733Z,94652.59
2022-08-14T22:20:53.755Z,94657.91
2022-08-14T22:23:25.825Z,94655.75
2022-08-14T22:25:55.173Z,94652.00
2022-08-14T22:28:27.289Z,94654.16
2022-08-14T22:31:02.771Z,94645.72
2022-08-14T22:33:31.797Z,94642.00
2022-08-14T22:36:25.063Z,94638.75
2022-08-14T22:38:54.270Z,94636.13
2022-08-14T22:41:32.559Z,94639.34
2022-08-14T22:44:05.219Z,94636.72
2022-08-14T22:46:34.617Z,94632.38
2022-08-14T22:49:16.820Z,94630.22
2022-08-14T22:51:53.068Z,94633.47
2022-08-14T22:54:52.874Z,94632.38
2022-08-14T22:57:10.282Z,94627.09
2022-08-14T22:59:39.039Z,94624.94
2022-08-14T23:02:12.605Z,94615.91
2022-08-14T23:04:54.369Z,94616.97
2022-08-14T23:09:01.665Z,94613.75
2022-08-14T23:10:31.865Z,94618.22
2022-08-14T23:13:04.720Z,94621.66
2022-08-14T23:15:34.059Z,94620.00
2022-08-14T23:18:03.224Z,94613.41
2022-08-14T23:20:33.727Z,94610.38
2022-08-14T23:23:13.479Z,94605.75
2022-08-14T23:26:00.186Z,94603.13
2022-08-14T23:28:58.328Z,94599.66
2022-08-14T23:31:36.052Z,94598.41
2022-08-14T23:34:06.860Z,94597.22
2022-08-14T23:36:37.999Z,94606.75
2022-08-14T23:39:29.594Z,94604.69
2022-08-14T23:42:02.404Z,94613.72
2022-08-14T23:44:35.331Z,94599.38
2022-08-14T23:47:12.149Z,94602.53
2022-08-14T23:50:00.127Z,94601.13
2022-08-14T23:52:50.578Z,94602.69
2022-08-14T23:55:19.500Z,94598.56
2022-08-14T23:57:58.169Z,94593.28
